Celebrity Constellation — 9HJB9 — position and weather

sailwx.info

Track history (hours):
 
Tides and Currents Weather Stations Pressure Air Temp Water Temp Dewpoint Dewpoint Depression Visibility Wind Speed Wind Dir Waves Ship Positions

Celebrity Constellation

Last reported at 2017-Nov-17 09:15 UTC. Time now 2017-Nov-19 10:41 UTC.
Position N 30°18' E 032°26'.

Length 294 m; draft 8.3 m.

Type: Passenger vessel. MMSI: 249046000.

Date/timePositionNaut miles runAvg speedWind from/ knotsBaromVisibWave heightAir tempDewpointWater temp
2017-Nov-17 09:15N 30°18' E 032°26'310.2
2017-Nov-17 08:56N 30°20' E 032°23'510.2
2017-Nov-17 08:26N 30°25' E 032°21'3 7.0
2017-Nov-17 08:00N 30°24' E 032°18'2810.2 010 / 151015.0 21.019.522.0
2017-Nov-17 05:14N 30°52' E 032°19'2 9.2
2017-Nov-17 05:00N 30°54' E 032°19'4 8.7
2017-Nov-17 04:30N 30°59' E 032°19'5 9.2
2017-Nov-17 03:59N 31°03' E 032°19'19 7.8
2017-Nov-17 01:32N 31°22' E 032°23'5 3.1
2017-Nov-17 00:00N 31°24' E 032°18'1 0.5 040 / 141015.0 5.4 19.017.522.0
2017-Nov-16 21:27N 31°24' E 032°20'11 9.1
2017-Nov-16 20:18N 31°32' E 032°12'517.8
2017-Nov-16 20:00N 31°36' E 032°08'1117.9
2017-Nov-16 19:24N 31°44' E 031°59'718.5
2017-Nov-16 19:00N 31°48' E 031°52'5419.1
2017-Nov-16 16:10N 32°23' E 031°03'6520.4
2017-Nov-16 13:00N 33°00' E 030°00'513.7 040 / 121018.0 5.4 25.022.221.2
2017-Nov-16 12:38N 33°05' E 030°01'319.2
2017-Nov-16 12:29N 33°07' E 029°58'24619.7
2017-Nov-16 00:00N 35°42' E 026°06'16519.2 140 / 221018.0 5.4 19.015.919.7
2017-Nov-15 15:26N 37°39' E 023°42'819.8
2017-Nov-15 15:00N 37°47' E 023°38'917.0
2017-Nov-15 14:30N 37°56' E 023°36'1 1.6
2017-Nov-15 13:58N 37°56' E 023°37'0 0.0
2017-Nov-15 13:28N 37°56' E 023°37'0 0.0
2017-Nov-15 12:58N 37°56' E 023°37'0 0.0
2017-Nov-15 12:28N 37°56' E 023°37'0 0.0
2017-Nov-15 11:58N 37°56' E 023°37'0 0.0
2017-Nov-15 11:28N 37°56' E 023°37'0 0.0
2017-Nov-15 10:58N 37°56' E 023°37'0 0.0
2017-Nov-15 10:28N 37°56' E 023°37'0 0.0
2017-Nov-15 09:58N 37°56' E 023°37'0 0.0
2017-Nov-15 09:28N 37°56' E 023°37'0 0.0
2017-Nov-15 08:58N 37°56' E 023°37'0 0.0
2017-Nov-15 08:28N 37°56' E 023°37'0 0.0
2017-Nov-15 07:58N 37°56' E 023°37'0 0.0
2017-Nov-15 07:28N 37°56' E 023°37'0 0.0
2017-Nov-15 06:58N 37°56' E 023°37'0 0.0
2017-Nov-15 06:28N 37°56' E 023°37'0 0.0
2017-Nov-15 05:58N 37°56' E 023°37'0 0.0
2017-Nov-15 05:28N 37°56' E 023°37'0 0.0
2017-Nov-15 04:58N 37°56' E 023°37'0 0.0
2017-Nov-15 04:28N 37°56' E 023°37'0 0.0
2017-Nov-15 03:58N 37°56' E 023°37'0 0.0
2017-Nov-15 03:28N 37°56' E 023°37'0 0.0
2017-Nov-15 02:58N 37°56' E 023°37'0 0.3
2017-Nov-15 02:30N 37°56' E 023°37'510.4
2017-Nov-15 02:00N 37°51' E 023°39'917.6
2017-Nov-15 01:31N 37°43' E 023°44'816.8
2017-Nov-15 01:01N 37°35' E 023°45'815.4
2017-Nov-15 00:30N 37°27' E 023°43'815.6
2017-Nov-15 00:01N 37°20' E 023°40'1414.1
2017-Nov-14 23:00N 37°06' E 023°36'11913.2 130 / 171016.0 5.4 20.016.920.1
2017-Nov-14 14:00N 36°36' E 021°12'8416.7 180 / 281010.0 5.4 18.016.420.3
2017-Nov-14 09:00N 36°54' E 019°30'10014.3 180 / 221008.0 18.016.419.0
2017-Nov-14 02:00N 37°24' E 017°30'211 8.8 170 / 161004.0 5.4 18.016.419.3
2017-Nov-13 02:00N 39°42' E 014°06'1229245.8 240 / 241013.0 5.4 17.015.419.3
2017-Nov-12 21:00N 40°48' W 012°42'90 9.0 250 / 241005.0 16.012.618.0
2017-Nov-12 11:00N 42°06' W 011°42'90 6.4 120 / 151015.0 25.025.017.0
2017-Nov-11 21:00N 40°48' W 012°42'1230175.8 300 / 121015.0 16.016.018.0
2017-Nov-11 14:00N 39°36' E 014°06'7913.8 030 / 151012.0 5.4 18.018.019.0
2017-Nov-11 08:16N 38°39' E 015°17'414.4
2017-Nov-11 07:58N 38°36' E 015°21'814.6
2017-Nov-11 07:26N 38°31' E 015°28'614.4
2017-Nov-11 07:00N 38°26' E 015°33'714.3
2017-Nov-11 06:30N 38°21' E 015°40'612.0
2017-Nov-11 06:00N 38°15' E 015°40'713.9
2017-Nov-11 05:30N 38°09' E 015°37'714.4
2017-Nov-11 05:00N 38°02' E 015°35'714.4
2017-Nov-11 04:31N 37°55' E 015°34'714.3
2017-Nov-11 04:00N 37°48' E 015°33'814.8
2017-Nov-11 03:30N 37°40' E 015°32'715.0
2017-Nov-11 03:00N 37°33' E 015°30'1014.7
2017-Nov-11 02:18N 37°23' E 015°29'614.6
2017-Nov-11 01:55N 37°17' E 015°28'1112.3
2017-Nov-11 01:00N 37°06' E 015°24'7114.9 040 / 261010.0 2.2 20.0 21.0
2017-Nov-10 20:12N 36°03' E 014°42'314.5
2017-Nov-10 20:00N 36°01' E 014°40'714.2
2017-Nov-10 19:30N 35°56' E 014°34'3 0.2
2017-Nov-10 05:16N 35°54' E 014°31'2 7.3
2017-Nov-10 05:00N 35°55' E 014°34'510.4
2017-Nov-10 04:30N 35°57' E 014°39'510.3
2017-Nov-10 03:59N 35°59' E 014°45'510.2
2017-Nov-10 03:30N 35°59' E 014°52'19712.7
2017-Nov-09 12:00N 35°48' E 018°54'13613.6 270 / 111022.0 5.4 19.017.520.0
2017-Nov-09 02:00N 35°48' E 021°42'12512.5 280 / 181022.0 5.4 22.015.820.0
2017-Nov-08 15:58N 35°33' E 024°15'15 5.1
2017-Nov-08 13:00N 35°24' E 024°00'16 1.6 090 / 31019.0 5.4 33.031.720.0
2017-Nov-08 03:17N 35°30' E 024°18'416.1
2017-Nov-08 03:01N 35°31' E 024°23'816.5
2017-Nov-08 02:30N 35°31' E 024°33'1711.2
2017-Nov-08 01:00N 35°30' E 024°54'19416.1 290 / 51020.0 5.4 18.016.422.0
2017-Nov-07 13:00N 34°24' E 028°36'   360 / 91022.0 5.4 18.016.420.0
Track history (hours):
 
Tides and Currents Weather Stations Pressure Air Temp Water Temp Dewpoint Dewpoint Depression Visibility Wind Speed Wind Dir Waves Ship Positions

Celebrity Constellation

Last reported at 2017-Nov-17 09:15 UTC. Time now 2017-Nov-19 10:41 UTC.
Position N 30°18' E 032°26'.

Length 294 m; draft 8.3 m.

Type: Passenger vessel. MMSI: 249046000.

Date/timePositionNaut miles runAvg speedWind from/ knotsBaromVisibWave heightAir tempDewpointWater temp
2017-Nov-17 09:15N 30°18' E 032°26'310.2
2017-Nov-17 08:56N 30°20' E 032°23'510.2
2017-Nov-17 08:26N 30°25' E 032°21'3 7.0
2017-Nov-17 08:00N 30°24' E 032°18'2810.2 010 / 151015.0 21.019.522.0
2017-Nov-17 05:14N 30°52' E 032°19'2 9.2
2017-Nov-17 05:00N 30°54' E 032°19'4 8.7
2017-Nov-17 04:30N 30°59' E 032°19'5 9.2
2017-Nov-17 03:59N 31°03' E 032°19'19 7.8
2017-Nov-17 01:32N 31°22' E 032°23'5 3.1
2017-Nov-17 00:00N 31°24' E 032°18'1 0.5 040 / 141015.0 5.4 19.017.522.0
2017-Nov-16 21:27N 31°24' E 032°20'11 9.1
2017-Nov-16 20:18N 31°32' E 032°12'517.8
2017-Nov-16 20:00N 31°36' E 032°08'1117.9
2017-Nov-16 19:24N 31°44' E 031°59'718.5
2017-Nov-16 19:00N 31°48' E 031°52'5419.1
2017-Nov-16 16:10N 32°23' E 031°03'6520.4
2017-Nov-16 13:00N 33°00' E 030°00'513.7 040 / 121018.0 5.4 25.022.221.2
2017-Nov-16 12:38N 33°05' E 030°01'319.2
2017-Nov-16 12:29N 33°07' E 029°58'24619.7
2017-Nov-16 00:00N 35°42' E 026°06'16519.2 140 / 221018.0 5.4 19.015.919.7
2017-Nov-15 15:26N 37°39' E 023°42'819.8
2017-Nov-15 15:00N 37°47' E 023°38'917.0
2017-Nov-15 14:30N 37°56' E 023°36'1 1.6
2017-Nov-15 13:58N 37°56' E 023°37'0 0.0
2017-Nov-15 13:28N 37°56' E 023°37'0 0.0
2017-Nov-15 12:58N 37°56' E 023°37'0 0.0
2017-Nov-15 12:28N 37°56' E 023°37'0 0.0
2017-Nov-15 11:58N 37°56' E 023°37'0 0.0
2017-Nov-15 11:28N 37°56' E 023°37'0 0.0
2017-Nov-15 10:58N 37°56' E 023°37'0 0.0
2017-Nov-15 10:28N 37°56' E 023°37'0 0.0
2017-Nov-15 09:58N 37°56' E 023°37'0 0.0
2017-Nov-15 09:28N 37°56' E 023°37'0 0.0
2017-Nov-15 08:58N 37°56' E 023°37'0 0.0
2017-Nov-15 08:28N 37°56' E 023°37'0 0.0
2017-Nov-15 07:58N 37°56' E 023°37'0 0.0
2017-Nov-15 07:28N 37°56' E 023°37'0 0.0
2017-Nov-15 06:58N 37°56' E 023°37'0 0.0
2017-Nov-15 06:28N 37°56' E 023°37'0 0.0
2017-Nov-15 05:58N 37°56' E 023°37'0 0.0
2017-Nov-15 05:28N 37°56' E 023°37'0 0.0
2017-Nov-15 04:58N 37°56' E 023°37'0 0.0
2017-Nov-15 04:28N 37°56' E 023°37'0 0.0
2017-Nov-15 03:58N 37°56' E 023°37'0 0.0
2017-Nov-15 03:28N 37°56' E 023°37'0 0.0
2017-Nov-15 02:58N 37°56' E 023°37'0 0.3
2017-Nov-15 02:30N 37°56' E 023°37'510.4
2017-Nov-15 02:00N 37°51' E 023°39'917.6
2017-Nov-15 01:31N 37°43' E 023°44'816.8
2017-Nov-15 01:01N 37°35' E 023°45'815.4
2017-Nov-15 00:30N 37°27' E 023°43'815.6
2017-Nov-15 00:01N 37°20' E 023°40'1414.1
2017-Nov-14 23:00N 37°06' E 023°36'11913.2 130 / 171016.0 5.4 20.016.920.1
2017-Nov-14 14:00N 36°36' E 021°12'8416.7 180 / 281010.0 5.4 18.016.420.3
2017-Nov-14 09:00N 36°54' E 019°30'10014.3 180 / 221008.0 18.016.419.0
2017-Nov-14 02:00N 37°24' E 017°30'211 8.8 170 / 161004.0 5.4 18.016.419.3
2017-Nov-13 02:00N 39°42' E 014°06'1229245.8 240 / 241013.0 5.4 17.015.419.3
2017-Nov-12 21:00N 40°48' W 012°42'90 9.0 250 / 241005.0 16.012.618.0
2017-Nov-12 11:00N 42°06' W 011°42'90 6.4 120 / 151015.0 25.025.017.0
2017-Nov-11 21:00N 40°48' W 012°42'1230175.8 300 / 121015.0 16.016.018.0
2017-Nov-11 14:00N 39°36' E 014°06'7913.8 030 / 151012.0 5.4 18.018.019.0
2017-Nov-11 08:16N 38°39' E 015°17'414.4
2017-Nov-11 07:58N 38°36' E 015°21'814.6
2017-Nov-11 07:26N 38°31' E 015°28'614.4
2017-Nov-11 07:00N 38°26' E 015°33'714.3
2017-Nov-11 06:30N 38°21' E 015°40'612.0
2017-Nov-11 06:00N 38°15' E 015°40'713.9
2017-Nov-11 05:30N 38°09' E 015°37'714.4
2017-Nov-11 05:00N 38°02' E 015°35'714.4
2017-Nov-11 04:31N 37°55' E 015°34'714.3
2017-Nov-11 04:00N 37°48' E 015°33'814.8
2017-Nov-11 03:30N 37°40' E 015°32'715.0
2017-Nov-11 03:00N 37°33' E 015°30'1014.7
2017-Nov-11 02:18N 37°23' E 015°29'614.6
2017-Nov-11 01:55N 37°17' E 015°28'1112.3
2017-Nov-11 01:00N 37°06' E 015°24'7114.9 040 / 261010.0 2.2 20.0 21.0
2017-Nov-10 20:12N 36°03' E 014°42'314.5
2017-Nov-10 20:00N 36°01' E 014°40'714.2
2017-Nov-10 19:30N 35°56' E 014°34'3 0.2
2017-Nov-10 05:16N 35°54' E 014°31'2 7.3
2017-Nov-10 05:00N 35°55' E 014°34'510.4
2017-Nov-10 04:30N 35°57' E 014°39'510.3
2017-Nov-10 03:59N 35°59' E 014°45'510.2
2017-Nov-10 03:30N 35°59' E 014°52'19712.7
2017-Nov-09 12:00N 35°48' E 018°54'13613.6 270 / 111022.0 5.4 19.017.520.0
2017-Nov-09 02:00N 35°48' E 021°42'12512.5 280 / 181022.0 5.4 22.015.820.0
2017-Nov-08 15:58N 35°33' E 024°15'15 5.1
2017-Nov-08 13:00N 35°24' E 024°00'16 1.6 090 / 31019.0 5.4 33.031.720.0
2017-Nov-08 03:17N 35°30' E 024°18'416.1
2017-Nov-08 03:01N 35°31' E 024°23'816.5
2017-Nov-08 02:30N 35°31' E 024°33'1711.2
2017-Nov-08 01:00N 35°30' E 024°54'19416.1 290 / 51020.0 5.4 18.016.422.0
2017-Nov-07 13:00N 34°24' E 028°36'   360 / 91022.0 5.4 18.016.420.0

Dump ship's entire track history